sensor_id;sensor_type;location;lat;lon;timestamp;P1;durP1;ratioP1;P2;durP2;ratioP2
54197;SDS011;40105;52.366;17.000;2023-07-13T00:01:03;2.47;;;0.82;;
54197;SDS011;40105;52.366;17.000;2023-07-13T00:03:29;4.82;;;1.77;;
54197;SDS011;40105;52.366;17.000;2023-07-13T00:06:00;7.10;;;1.10;;
54197;SDS011;40105;52.366;17.000;2023-07-13T00:08:25;3.97;;;1.00;;
54197;SDS011;40105;52.366;17.000;2023-07-13T00:10:51;8.13;;;0.97;;
54197;SDS011;40105;52.366;17.000;2023-07-13T00:13:19;1.65;;;0.70;;
54197;SDS011;40105;52.366;17.000;2023-07-13T00:15:44;1.27;;;0.63;;
54197;SDS011;40105;52.366;17.000;2023-07-13T00:18:09;0.97;;;0.57;;
54197;SDS011;40105;52.366;17.000;2023-07-13T00:20:34;3.88;;;0.82;;
54197;SDS011;40105;52.366;17.000;2023-07-13T00:23:00;1.13;;;0.65;;
54197;SDS011;40105;52.366;17.000;2023-07-13T00:25:25;0.87;;;0.67;;
54197;SDS011;40105;52.366;17.000;2023-07-13T00:27:52;0.70;;;0.50;;
54197;SDS011;40105;52.366;17.000;2023-07-13T00:30:18;4.77;;;0.80;;
54197;SDS011;40105;52.366;17.000;2023-07-13T00:32:43;1.08;;;0.60;;
54197;SDS011;40105;52.366;17.000;2023-07-13T00:35:08;0.40;;;0.40;;
54197;SDS011;40105;52.366;17.000;2023-07-13T00:37:33;1.03;;;0.70;;
54197;SDS011;40105;52.366;17.000;2023-07-13T00:40:00;6.00;;;0.60;;
54197;SDS011;40105;52.366;17.000;2023-07-13T00:42:25;8.37;;;0.80;;
54197;SDS011;40105;52.366;17.000;2023-07-13T00:45:04;1.97;;;0.83;;
54197;SDS011;40105;52.366;17.000;2023-07-13T00:47:29;1.58;;;0.95;;
54197;SDS011;40105;52.366;17.000;2023-07-13T00:49:54;1.50;;;1.00;;
54197;SDS011;40105;52.366;17.000;2023-07-13T00:52:20;1.35;;;0.73;;
54197;SDS011;40105;52.366;17.000;2023-07-13T00:54:45;0.40;;;0.40;;
54197;SDS011;40105;52.366;17.000;2023-07-13T00:57:12;2.95;;;0.43;;
54197;SDS011;40105;52.366;17.000;2023-07-13T00:59:39;2.70;;;1.05;;
54197;SDS011;40105;52.366;17.000;2023-07-13T01:02:05;1.88;;;0.90;;
54197;SDS011;40105;52.366;17.000;2023-07-13T01:04:30;2.90;;;0.80;;
54197;SDS011;40105;52.366;17.000;2023-07-13T01:06:55;0.90;;;0.60;;
54197;SDS011;40105;52.366;17.000;2023-07-13T01:09:21;1.92;;;0.80;;
54197;SDS011;40105;52.366;17.000;2023-07-13T01:11:47;3.00;;;1.20;;
54197;SDS011;40105;52.366;17.000;2023-07-13T01:14:12;0.85;;;0.70;;
54197;SDS011;40105;52.366;17.000;2023-07-13T01:16:37;1.27;;;0.77;;
54197;SDS011;40105;52.366;17.000;2023-07-13T01:19:07;1.10;;;0.65;;
54197;SDS011;40105;52.366;17.000;2023-07-13T01:21:34;1.00;;;0.50;;
54197;SDS011;40105;52.366;17.000;2023-07-13T01:23:59;1.33;;;0.90;;
54197;SDS011;40105;52.366;17.000;2023-07-13T01:26:25;2.50;;;0.95;;
54197;SDS011;40105;52.366;17.000;2023-07-13T01:28:51;1.13;;;0.60;;
54197;SDS011;40105;52.366;17.000;2023-07-13T01:31:16;0.63;;;0.60;;
54197;SDS011;40105;52.366;17.000;2023-07-13T01:33:42;2.45;;;1.35;;
54197;SDS011;40105;52.366;17.000;2023-07-13T01:36:07;0.57;;;0.50;;
54197;SDS011;40105;52.366;17.000;2023-07-13T01:38:33;3.90;;;1.10;;
54197;SDS011;40105;52.366;17.000;2023-07-13T01:40:58;0.85;;;0.40;;
54197;SDS011;40105;52.366;17.000;2023-07-13T01:43:24;1.35;;;0.90;;
54197;SDS011;40105;52.366;17.000;2023-07-13T01:45:49;2.50;;;0.97;;
54197;SDS011;40105;52.366;17.000;2023-07-13T01:48:14;2.10;;;0.70;;
54197;SDS011;40105;52.366;17.000;2023-07-13T01:50:39;2.43;;;0.67;;
54197;SDS011;40105;52.366;17.000;2023-07-13T01:53:05;0.60;;;0.60;;
54197;SDS011;40105;52.366;17.000;2023-07-13T01:55:30;0.85;;;0.57;;
54197;SDS011;40105;52.366;17.000;2023-07-13T01:57:56;1.47;;;0.60;;
54197;SDS011;40105;52.366;17.000;2023-07-13T02:00:21;0.82;;;0.50;;
54197;SDS011;40105;52.366;17.000;2023-07-13T02:02:46;1.87;;;0.97;;
54197;SDS011;40105;52.366;17.000;2023-07-13T02:05:12;2.38;;;1.10;;
54197;SDS011;40105;52.366;17.000;2023-07-13T02:07:38;0.73;;;0.55;;
54197;SDS011;40105;52.366;17.000;2023-07-13T02:10:03;0.47;;;0.47;;
54197;SDS011;40105;52.366;17.000;2023-07-13T02:12:28;0.50;;;0.50;;
54197;SDS011;40105;52.366;17.000;2023-07-13T02:14:54;0.67;;;0.40;;
54197;SDS011;40105;52.366;17.000;2023-07-13T02:17:19;0.97;;;0.50;;
54197;SDS011;40105;52.366;17.000;2023-07-13T02:19:44;1.37;;;0.97;;
54197;SDS011;40105;52.366;17.000;2023-07-13T02:22:09;2.10;;;0.80;;
54197;SDS011;40105;52.366;17.000;2023-07-13T02:24:34;1.13;;;0.53;;
54197;SDS011;40105;52.366;17.000;2023-07-13T02:27:00;1.93;;;1.03;;
54197;SDS011;40105;52.366;17.000;2023-07-13T02:29:25;2.03;;;0.83;;
54197;SDS011;40105;52.366;17.000;2023-07-13T02:31:50;1.37;;;0.57;;
54197;SDS011;40105;52.366;17.000;2023-07-13T02:34:15;0.67;;;0.50;;
54197;SDS011;40105;52.366;17.000;2023-07-13T02:36:40;2.10;;;0.70;;
54197;SDS011;40105;52.366;17.000;2023-07-13T02:39:06;1.37;;;0.70;;
54197;SDS011;40105;52.366;17.000;2023-07-13T02:41:31;1.03;;;0.60;;
54197;SDS011;40105;52.366;17.000;2023-07-13T02:43:57;0.93;;;0.68;;
54197;SDS011;40105;52.366;17.000;2023-07-13T02:46:28;1.25;;;0.70;;
54197;SDS011;40105;52.366;17.000;2023-07-13T02:48:53;3.45;;;0.73;;
54197;SDS011;40105;52.366;17.000;2023-07-13T02:51:18;1.33;;;0.50;;
54197;SDS011;40105;52.366;17.000;2023-07-13T02:53:43;1.23;;;0.77;;
54197;SDS011;40105;52.366;17.000;2023-07-13T02:56:08;2.03;;;1.00;;
54197;SDS011;40105;52.366;17.000;2023-07-13T02:58:33;2.30;;;0.98;;
54197;SDS011;40105;52.366;17.000;2023-07-13T03:01:05;2.63;;;1.10;;
54197;SDS011;40105;52.366;17.000;2023-07-13T03:03:30;1.30;;;0.82;;
54197;SDS011;40105;52.366;17.000;2023-07-13T03:05:59;1.23;;;0.80;;
54197;SDS011;40105;52.366;17.000;2023-07-13T03:08:25;1.00;;;0.70;;
54197;SDS011;40105;52.366;17.000;2023-07-13T03:10:58;2.22;;;1.25;;
54197;SDS011;40105;52.366;17.000;2023-07-13T03:13:23;3.08;;;1.15;;
54197;SDS011;40105;52.366;17.000;2023-07-13T03:15:48;1.70;;;1.00;;
54197;SDS011;40105;52.366;17.000;2023-07-13T03:18:14;2.70;;;0.80;;
54197;SDS011;40105;52.366;17.000;2023-07-13T03:20:39;0.83;;;0.57;;
54197;SDS011;40105;52.366;17.000;2023-07-13T03:23:04;1.27;;;0.95;;
54197;SDS011;40105;52.366;17.000;2023-07-13T03:25:29;1.63;;;1.03;;
54197;SDS011;40105;52.366;17.000;2023-07-13T03:27:54;2.83;;;0.87;;
54197;SDS011;40105;52.366;17.000;2023-07-13T03:30:20;2.97;;;0.90;;
54197;SDS011;40105;52.366;17.000;2023-07-13T03:32:45;1.67;;;0.90;;
54197;SDS011;40105;52.366;17.000;2023-07-13T03:35:10;2.00;;;1.00;;
54197;SDS011;40105;52.366;17.000;2023-07-13T03:37:35;2.93;;;1.00;;
54197;SDS011;40105;52.366;17.000;2023-07-13T03:40:07;1.63;;;1.02;;
54197;SDS011;40105;52.366;17.000;2023-07-13T03:42:34;1.02;;;0.70;;
54197;SDS011;40105;52.366;17.000;2023-07-13T03:44:59;1.83;;;1.00;;
54197;SDS011;40105;52.366;17.000;2023-07-13T03:47:24;1.97;;;1.27;;
54197;SDS011;40105;52.366;17.000;2023-07-13T03:49:49;1.97;;;1.13;;
54197;SDS011;40105;52.366;17.000;2023-07-13T03:52:14;3.50;;;1.20;;
54197;SDS011;40105;52.366;17.000;2023-07-13T03:54:40;0.93;;;0.83;;
54197;SDS011;40105;52.366;17.000;2023-07-13T03:57:05;5.03;;;1.90;;
54197;SDS011;40105;52.366;17.000;2023-07-13T03:59:30;1.88;;;1.10;;
54197;SDS011;40105;52.366;17.000;2023-07-13T04:01:55;1.30;;;0.97;;
54197;SDS011;40105;52.366;17.000;2023-07-13T04:04:20;3.87;;;1.40;;
54197;SDS011;40105;52.366;17.000;2023-07-13T04:06:46;1.77;;;0.93;;
54197;SDS011;40105;52.366;17.000;2023-07-13T04:09:11;1.37;;;1.00;;
54197;SDS011;40105;52.366;17.000;2023-07-13T04:11:36;3.03;;;1.70;;
54197;SDS011;40105;52.366;17.000;2023-07-13T04:14:01;3.57;;;1.63;;
54197;SDS011;40105;52.366;17.000;2023-07-13T04:16:27;2.67;;;1.10;;
54197;SDS011;40105;52.366;17.000;2023-07-13T04:18:52;2.20;;;1.33;;
54197;SDS011;40105;52.366;17.000;2023-07-13T04:21:24;2.53;;;0.95;;
54197;SDS011;40105;52.366;17.000;2023-07-13T04:23:49;2.17;;;1.20;;
54197;SDS011;40105;52.366;17.000;2023-07-13T04:26:15;2.83;;;1.50;;
54197;SDS011;40105;52.366;17.000;2023-07-13T04:28:40;6.33;;;1.40;;
54197;SDS011;40105;52.366;17.000;2023-07-13T04:31:05;2.00;;;1.33;;
54197;SDS011;40105;52.366;17.000;2023-07-13T04:33:30;3.50;;;1.77;;
54197;SDS011;40105;52.366;17.000;2023-07-13T04:35:55;29.27;;;2.27;;
54197;SDS011;40105;52.366;17.000;2023-07-13T04:38:24;4.13;;;1.95;;
54197;SDS011;40105;52.366;17.000;2023-07-13T04:40:50;5.55;;;2.47;;
54197;SDS011;40105;52.366;17.000;2023-07-13T04:43:15;5.20;;;2.00;;
54197;SDS011;40105;52.366;17.000;2023-07-13T04:45:41;3.87;;;1.90;;
54197;SDS011;40105;52.366;17.000;2023-07-13T04:48:06;8.18;;;2.00;;
54197;SDS011;40105;52.366;17.000;2023-07-13T04:50:31;11.83;;;2.80;;
54197;SDS011;40105;52.366;17.000;2023-07-13T04:52:56;3.30;;;2.33;;
54197;SDS011;40105;52.366;17.000;2023-07-13T04:55:22;3.73;;;1.90;;
54197;SDS011;40105;52.366;17.000;2023-07-13T04:57:47;4.63;;;1.93;;
54197;SDS011;40105;52.366;17.000;2023-07-13T05:00:12;5.00;;;2.13;;
54197;SDS011;40105;52.366;17.000;2023-07-13T05:02:38;4.70;;;1.90;;
54197;SDS011;40105;52.366;17.000;2023-07-13T05:05:04;4.28;;;1.90;;
54197;SDS011;40105;52.366;17.000;2023-07-13T05:07:29;3.35;;;1.90;;
54197;SDS011;40105;52.366;17.000;2023-07-13T05:09:54;3.20;;;2.00;;
54197;SDS011;40105;52.366;17.000;2023-07-13T05:12:19;7.53;;;2.47;;
54197;SDS011;40105;52.366;17.000;2023-07-13T05:14:45;4.93;;;1.93;;
54197;SDS011;40105;52.366;17.000;2023-07-13T05:17:10;4.47;;;2.53;;
54197;SDS011;40105;52.366;17.000;2023-07-13T05:19:35;4.95;;;2.45;;
54197;SDS011;40105;52.366;17.000;2023-07-13T05:22:00;4.03;;;2.20;;
54197;SDS011;40105;52.366;17.000;2023-07-13T05:24:27;3.05;;;1.83;;
54197;SDS011;40105;52.366;17.000;2023-07-13T05:26:52;4.20;;;2.47;;
54197;SDS011;40105;52.366;17.000;2023-07-13T05:29:18;3.78;;;2.38;;
54197;SDS011;40105;52.366;17.000;2023-07-13T05:31:43;3.93;;;2.30;;
54197;SDS011;40105;52.366;17.000;2023-07-13T05:34:08;12.03;;;2.63;;
54197;SDS011;40105;52.366;17.000;2023-07-13T05:36:33;4.23;;;2.13;;
54197;SDS011;40105;52.366;17.000;2023-07-13T05:38:59;4.22;;;2.35;;
54197;SDS011;40105;52.366;17.000;2023-07-13T05:41:24;5.80;;;2.30;;
54197;SDS011;40105;52.366;17.000;2023-07-13T05:43:49;8.83;;;2.20;;
54197;SDS011;40105;52.366;17.000;2023-07-13T05:46:14;9.90;;;2.40;;
54197;SDS011;40105;52.366;17.000;2023-07-13T05:48:40;9.63;;;3.27;;
54197;SDS011;40105;52.366;17.000;2023-07-13T05:51:05;17.20;;;2.90;;
54197;SDS011;40105;52.366;17.000;2023-07-13T05:53:30;2.63;;;1.92;;
54197;SDS011;40105;52.366;17.000;2023-07-13T05:55:55;7.73;;;3.37;;
54197;SDS011;40105;52.366;17.000;2023-07-13T05:58:20;7.50;;;2.57;;
54197;SDS011;40105;52.366;17.000;2023-07-13T06:00:46;9.30;;;2.53;;
54197;SDS011;40105;52.366;17.000;2023-07-13T06:03:11;5.40;;;2.42;;
54197;SDS011;40105;52.366;17.000;2023-07-13T06:05:36;3.87;;;2.27;;
54197;SDS011;40105;52.366;17.000;2023-07-13T06:08:03;5.85;;;2.92;;
54197;SDS011;40105;52.366;17.000;2023-07-13T06:10:28;6.53;;;2.83;;
54197;SDS011;40105;52.366;17.000;2023-07-13T06:12:53;5.67;;;2.50;;
54197;SDS011;40105;52.366;17.000;2023-07-13T06:15:18;6.00;;;2.30;;
54197;SDS011;40105;52.366;17.000;2023-07-13T06:17:44;7.67;;;2.93;;
54197;SDS011;40105;52.366;17.000;2023-07-13T06:20:10;5.93;;;2.60;;
54197;SDS011;40105;52.366;17.000;2023-07-13T06:22:35;10.07;;;3.20;;
54197;SDS011;40105;52.366;17.000;2023-07-13T06:25:00;5.90;;;3.03;;
54197;SDS011;40105;52.366;17.000;2023-07-13T06:27:25;7.43;;;3.50;;
54197;SDS011;40105;52.366;17.000;2023-07-13T06:29:50;6.32;;;3.03;;
54197;SDS011;40105;52.366;17.000;2023-07-13T06:32:16;5.20;;;2.77;;
54197;SDS011;40105;52.366;17.000;2023-07-13T06:34:41;16.70;;;2.17;;
54197;SDS011;40105;52.366;17.000;2023-07-13T06:37:06;38.65;;;3.47;;
54197;SDS011;40105;52.366;17.000;2023-07-13T06:39:32;19.00;;;2.90;;
54197;SDS011;40105;52.366;17.000;2023-07-13T06:41:57;3.55;;;2.30;;
54197;SDS011;40105;52.366;17.000;2023-07-13T06:44:22;7.20;;;2.87;;
54197;SDS011;40105;52.366;17.000;2023-07-13T06:46:47;5.23;;;2.27;;
54197;SDS011;40105;52.366;17.000;2023-07-13T06:49:13;6.47;;;2.00;;
54197;SDS011;40105;52.366;17.000;2023-07-13T06:51:38;5.83;;;1.87;;
54197;SDS011;40105;52.366;17.000;2023-07-13T06:54:03;5.10;;;2.43;;
54197;SDS011;40105;52.366;17.000;2023-07-13T06:56:28;5.50;;;2.28;;
54197;SDS011;40105;52.366;17.000;2023-07-13T06:58:53;2.70;;;1.50;;
54197;SDS011;40105;52.366;17.000;2023-07-13T07:01:19;2.30;;;1.60;;
54197;SDS011;40105;52.366;17.000;2023-07-13T07:03:44;9.57;;;2.00;;
54197;SDS011;40105;52.366;17.000;2023-07-13T07:06:12;3.63;;;1.87;;
54197;SDS011;40105;52.366;17.000;2023-07-13T07:08:39;2.97;;;1.70;;
54197;SDS011;40105;52.366;17.000;2023-07-13T07:11:04;5.03;;;2.20;;
54197;SDS011;40105;52.366;17.000;2023-07-13T07:13:29;3.75;;;1.90;;
54197;SDS011;40105;52.366;17.000;2023-07-13T07:15:55;4.38;;;1.60;;
54197;SDS011;40105;52.366;17.000;2023-07-13T07:18:20;3.20;;;1.80;;
54197;SDS011;40105;52.366;17.000;2023-07-13T07:20:45;4.53;;;1.73;;
54197;SDS011;40105;52.366;17.000;2023-07-13T07:23:10;3.43;;;1.87;;
54197;SDS011;40105;52.366;17.000;2023-07-13T07:25:35;2.83;;;1.67;;
54197;SDS011;40105;52.366;17.000;2023-07-13T07:28:06;7.43;;;2.38;;
54197;SDS011;40105;52.366;17.000;2023-07-13T07:30:32;11.47;;;1.80;;
54197;SDS011;40105;52.366;17.000;2023-07-13T07:32:57;12.60;;;3.10;;
54197;SDS011;40105;52.366;17.000;2023-07-13T07:35:22;6.68;;;2.45;;
54197;SDS011;40105;52.366;17.000;2023-07-13T07:37:47;10.37;;;2.47;;
54197;SDS011;40105;52.366;17.000;2023-07-13T07:40:13;2.57;;;1.70;;
54197;SDS011;40105;52.366;17.000;2023-07-13T07:42:38;4.27;;;2.30;;
54197;SDS011;40105;52.366;17.000;2023-07-13T07:45:03;5.37;;;1.57;;
54197;SDS011;40105;52.366;17.000;2023-07-13T07:47:28;4.82;;;2.00;;
54197;SDS011;40105;52.366;17.000;2023-07-13T07:49:53;1.67;;;1.40;;
54197;SDS011;40105;52.366;17.000;2023-07-13T07:52:19;3.63;;;2.20;;
54197;SDS011;40105;52.366;17.000;2023-07-13T07:54:44;3.10;;;1.70;;
54197;SDS011;40105;52.366;17.000;2023-07-13T07:57:09;7.33;;;2.20;;
54197;SDS011;40105;52.366;17.000;2023-07-13T07:59:35;3.60;;;2.00;;
54197;SDS011;40105;52.366;17.000;2023-07-13T08:02:01;2.03;;;1.15;;
54197;SDS011;40105;52.366;17.000;2023-07-13T08:04:27;3.53;;;1.60;;
54197;SDS011;40105;52.366;17.000;2023-07-13T08:06:52;4.73;;;2.17;;
54197;SDS011;40105;52.366;17.000;2023-07-13T08:09:17;3.27;;;1.27;;
54197;SDS011;40105;52.366;17.000;2023-07-13T08:11:43;4.13;;;1.87;;
54197;SDS011;40105;52.366;17.000;2023-07-13T08:14:08;4.80;;;2.20;;
54197;SDS011;40105;52.366;17.000;2023-07-13T08:16:34;2.08;;;1.40;;
54197;SDS011;40105;52.366;17.000;2023-07-13T08:18:59;2.87;;;1.47;;
54197;SDS011;40105;52.366;17.000;2023-07-13T08:21:24;3.53;;;1.27;;
54197;SDS011;40105;52.366;17.000;2023-07-13T08:23:49;2.77;;;1.50;;
54197;SDS011;40105;52.366;17.000;2023-07-13T08:26:15;1.47;;;1.00;;
54197;SDS011;40105;52.366;17.000;2023-07-13T08:28:40;2.27;;;1.30;;
54197;SDS011;40105;52.366;17.000;2023-07-13T08:31:06;3.42;;;1.48;;
54197;SDS011;40105;52.366;17.000;2023-07-13T08:33:32;3.15;;;1.83;;
54197;SDS011;40105;52.366;17.000;2023-07-13T08:35:57;1.73;;;1.00;;
54197;SDS011;40105;52.366;17.000;2023-07-13T08:38:22;6.60;;;1.50;;
54197;SDS011;40105;52.366;17.000;2023-07-13T08:40:50;5.22;;;1.75;;
54197;SDS011;40105;52.366;17.000;2023-07-13T08:43:16;6.60;;;1.80;;
54197;SDS011;40105;52.366;17.000;2023-07-13T08:45:50;4.55;;;0.85;;
54197;SDS011;40105;52.366;17.000;2023-07-13T08:48:26;3.85;;;1.35;;
54197;SDS011;40105;52.366;17.000;2023-07-13T08:50:56;1.95;;;0.98;;
54197;SDS011;40105;52.366;17.000;2023-07-13T08:53:22;1.33;;;0.98;;
54197;SDS011;40105;52.366;17.000;2023-07-13T08:55:49;2.20;;;1.10;;
54197;SDS011;40105;52.366;17.000;2023-07-13T08:58:16;3.85;;;1.75;;
54197;SDS011;40105;52.366;17.000;2023-07-13T09:00:50;2.22;;;1.05;;
54197;SDS011;40105;52.366;17.000;2023-07-13T09:03:19;2.70;;;1.52;;
54197;SDS011;40105;52.366;17.000;2023-07-13T09:05:45;4.80;;;2.22;;
54197;SDS011;40105;52.366;17.000;2023-07-13T09:10:46;4.35;;;1.65;;
54197;SDS011;40105;52.366;17.000;2023-07-13T09:15:45;2.30;;;1.38;;
54197;SDS011;40105;52.366;17.000;2023-07-13T09:20:44;2.30;;;1.63;;
54197;SDS011;40105;52.366;17.000;2023-07-13T09:23:13;2.92;;;1.63;;
54197;SDS011;40105;52.366;17.000;2023-07-13T09:25:39;2.22;;;1.35;;
54197;SDS011;40105;52.366;17.000;2023-07-13T09:28:12;2.67;;;1.42;;
54197;SDS011;40105;52.366;17.000;2023-07-13T09:30:45;10.63;;;2.03;;
54197;SDS011;40105;52.366;17.000;2023-07-13T09:33:11;2.13;;;1.20;;
54197;SDS011;40105;52.366;17.000;2023-07-13T09:35:36;4.27;;;1.60;;
54197;SDS011;40105;52.366;17.000;2023-07-13T09:38:04;3.80;;;1.93;;
54197;SDS011;40105;52.366;17.000;2023-07-13T09:40:37;4.47;;;1.38;;
54197;SDS011;40105;52.366;17.000;2023-07-13T09:43:05;2.33;;;1.17;;
54197;SDS011;40105;52.366;17.000;2023-07-13T09:45:33;5.80;;;1.38;;
54197;SDS011;40105;52.366;17.000;2023-07-13T09:47:59;3.47;;;1.50;;
54197;SDS011;40105;52.366;17.000;2023-07-13T09:50:25;2.85;;;1.60;;
54197;SDS011;40105;52.366;17.000;2023-07-13T09:52:50;2.17;;;1.47;;
54197;SDS011;40105;52.366;17.000;2023-07-13T09:55:29;4.57;;;1.95;;
54197;SDS011;40105;52.366;17.000;2023-07-13T09:57:54;6.28;;;1.45;;
54197;SDS011;40105;52.366;17.000;2023-07-13T10:00:29;3.63;;;1.43;;
54197;SDS011;40105;52.366;17.000;2023-07-13T10:03:05;5.00;;;1.73;;
54197;SDS011;40105;52.366;17.000;2023-07-13T10:05:37;7.38;;;2.13;;
54197;SDS011;40105;52.366;17.000;2023-07-13T10:08:02;6.88;;;2.45;;
54197;SDS011;40105;52.366;17.000;2023-07-13T10:10:27;3.43;;;1.53;;
54197;SDS011;40105;52.366;17.000;2023-07-13T10:12:53;2.33;;;1.23;;
54197;SDS011;40105;52.366;17.000;2023-07-13T10:15:19;3.17;;;1.40;;
54197;SDS011;40105;52.366;17.000;2023-07-13T10:17:45;4.00;;;1.45;;
54197;SDS011;40105;52.366;17.000;2023-07-13T10:20:11;2.53;;;1.63;;
54197;SDS011;40105;52.366;17.000;2023-07-13T10:25:22;2.83;;;1.00;;
54197;SDS011;40105;52.366;17.000;2023-07-13T10:27:56;4.00;;;1.75;;
54197;SDS011;40105;52.366;17.000;2023-07-13T10:30:30;3.70;;;1.38;;
54197;SDS011;40105;52.366;17.000;2023-07-13T10:33:02;2.63;;;1.27;;
54197;SDS011;40105;52.366;17.000;2023-07-13T10:35:28;2.40;;;1.15;;
54197;SDS011;40105;52.366;17.000;2023-07-13T10:37:55;2.22;;;1.40;;
54197;SDS011;40105;52.366;17.000;2023-07-13T10:40:23;2.35;;;1.38;;
54197;SDS011;40105;52.366;17.000;2023-07-13T10:42:50;3.88;;;1.90;;
54197;SDS011;40105;52.366;17.000;2023-07-13T10:45:18;4.63;;;1.58;;
54197;SDS011;40105;52.366;17.000;2023-07-13T10:47:45;2.22;;;1.50;;
54197;SDS011;40105;52.366;17.000;2023-07-13T10:50:15;7.45;;;6.80;;
54197;SDS011;40105;52.366;17.000;2023-07-13T10:52:46;1.73;;;1.20;;
54197;SDS011;40105;52.366;17.000;2023-07-13T10:55:33;4.60;;;1.80;;
54197;SDS011;40105;52.366;17.000;2023-07-13T10:58:11;1.65;;;1.25;;
54197;SDS011;40105;52.366;17.000;2023-07-13T11:00:43;3.42;;;1.40;;
54197;SDS011;40105;52.366;17.000;2023-07-13T11:03:12;5.43;;;1.40;;
54197;SDS011;40105;52.366;17.000;2023-07-13T11:05:38;3.27;;;1.77;;
54197;SDS011;40105;52.366;17.000;2023-07-13T11:10:52;2.60;;;1.35;;
54197;SDS011;40105;52.366;17.000;2023-07-13T11:13:55;3.10;;;1.23;;
54197;SDS011;40105;52.366;17.000;2023-07-13T11:16:13;3.72;;;2.08;;
54197;SDS011;40105;52.366;17.000;2023-07-13T11:18:39;4.32;;;1.50;;
54197;SDS011;40105;52.366;17.000;2023-07-13T11:21:13;2.43;;;1.07;;
54197;SDS011;40105;52.366;17.000;2023-07-13T11:23:38;6.53;;;1.90;;
54197;SDS011;40105;52.366;17.000;2023-07-13T11:26:36;7.18;;;2.40;;
54197;SDS011;40105;52.366;17.000;2023-07-13T11:28:52;5.65;;;2.45;;
54197;SDS011;40105;52.366;17.000;2023-07-13T11:31:17;3.23;;;1.40;;
54197;SDS011;40105;52.366;17.000;2023-07-13T11:33:51;2.78;;;1.35;;
54197;SDS011;40105;52.366;17.000;2023-07-13T11:36:17;2.53;;;1.10;;
54197;SDS011;40105;52.366;17.000;2023-07-13T11:38:57;1.95;;;1.00;;
54197;SDS011;40105;52.366;17.000;2023-07-13T11:41:26;4.35;;;1.33;;
54197;SDS011;40105;52.366;17.000;2023-07-13T11:43:55;2.78;;;1.35;;
54197;SDS011;40105;52.366;17.000;2023-07-13T11:46:27;2.30;;;1.00;;
54197;SDS011;40105;52.366;17.000;2023-07-13T11:48:53;6.55;;;1.35;;
54197;SDS011;40105;52.366;17.000;2023-07-13T11:51:19;6.38;;;2.17;;
54197;SDS011;40105;52.366;17.000;2023-07-13T11:53:46;5.63;;;1.55;;
54197;SDS011;40105;52.366;17.000;2023-07-13T11:56:12;5.55;;;1.50;;
54197;SDS011;40105;52.366;17.000;2023-07-13T11:58:37;2.83;;;1.03;;
54197;SDS011;40105;52.366;17.000;2023-07-13T12:01:02;1.73;;;1.13;;
54197;SDS011;40105;52.366;17.000;2023-07-13T12:03:30;3.70;;;1.45;;
54197;SDS011;40105;52.366;17.000;2023-07-13T12:05:58;2.95;;;1.75;;
54197;SDS011;40105;52.366;17.000;2023-07-13T12:08:24;6.40;;;1.20;;
54197;SDS011;40105;52.366;17.000;2023-07-13T12:10:56;3.17;;;1.13;;
54197;SDS011;40105;52.366;17.000;2023-07-13T12:13:21;2.65;;;0.90;;
54197;SDS011;40105;52.366;17.000;2023-07-13T12:15:46;0.73;;;0.60;;
54197;SDS011;40105;52.366;17.000;2023-07-13T12:18:17;4.68;;;1.00;;
54197;SDS011;40105;52.366;17.000;2023-07-13T12:20:43;2.33;;;0.70;;
54197;SDS011;40105;52.366;17.000;2023-07-13T12:25:53;1.38;;;0.70;;
54197;SDS011;40105;52.366;17.000;2023-07-13T12:28:19;1.77;;;0.68;;
54197;SDS011;40105;52.366;17.000;2023-07-13T12:30:47;1.42;;;0.68;;
54197;SDS011;40105;52.366;17.000;2023-07-13T12:33:12;1.50;;;0.60;;
54197;SDS011;40105;52.366;17.000;2023-07-13T12:35:44;0.82;;;0.50;;
54197;SDS011;40105;52.366;17.000;2023-07-13T12:38:11;1.85;;;1.05;;
54197;SDS011;40105;52.366;17.000;2023-07-13T12:40:37;4.28;;;0.93;;
54197;SDS011;40105;52.366;17.000;2023-07-13T12:43:02;3.58;;;1.33;;
54197;SDS011;40105;52.366;17.000;2023-07-13T12:45:29;1.63;;;0.90;;
54197;SDS011;40105;52.366;17.000;2023-07-13T12:47:57;1.27;;;0.98;;
54197;SDS011;40105;52.366;17.000;2023-07-13T12:50:29;1.05;;;0.65;;
54197;SDS011;40105;52.366;17.000;2023-07-13T12:53:00;2.30;;;0.82;;
54197;SDS011;40105;52.366;17.000;2023-07-13T12:55:28;0.73;;;0.57;;
54197;SDS011;40105;52.366;17.000;2023-07-13T12:57:57;1.77;;;0.82;;
54197;SDS011;40105;52.366;17.000;2023-07-13T13:00:28;6.20;;;0.88;;
54197;SDS011;40105;52.366;17.000;2023-07-13T13:02:54;0.82;;;0.60;;
54197;SDS011;40105;52.366;17.000;2023-07-13T13:05:20;1.10;;;0.60;;
54197;SDS011;40105;52.366;17.000;2023-07-13T13:07:48;2.45;;;0.85;;
54197;SDS011;40105;52.366;17.000;2023-07-13T13:10:13;1.83;;;0.87;;
54197;SDS011;40105;52.366;17.000;2023-07-13T13:12:39;1.05;;;0.70;;
54197;SDS011;40105;52.366;17.000;2023-07-13T13:15:04;0.82;;;0.65;;
54197;SDS011;40105;52.366;17.000;2023-07-13T13:17:31;1.60;;;0.60;;
54197;SDS011;40105;52.366;17.000;2023-07-13T13:19:57;1.35;;;0.80;;
54197;SDS011;40105;52.366;17.000;2023-07-13T13:22:22;1.80;;;0.60;;
54197;SDS011;40105;52.366;17.000;2023-07-13T13:24:47;1.80;;;0.80;;
54197;SDS011;40105;52.366;17.000;2023-07-13T13:27:17;0.80;;;0.52;;
54197;SDS011;40105;52.366;17.000;2023-07-13T13:29:43;1.30;;;0.63;;
54197;SDS011;40105;52.366;17.000;2023-07-13T13:32:10;0.90;;;0.47;;
54197;SDS011;40105;52.366;17.000;2023-07-13T13:34:36;0.50;;;0.47;;
54197;SDS011;40105;52.366;17.000;2023-07-13T13:37:01;1.83;;;0.73;;
54197;SDS011;40105;52.366;17.000;2023-07-13T13:39:32;0.77;;;0.60;;
54197;SDS011;40105;52.366;17.000;2023-07-13T13:41:58;0.77;;;0.50;;
54197;SDS011;40105;52.366;17.000;2023-07-13T13:44:23;1.67;;;0.88;;
54197;SDS011;40105;52.366;17.000;2023-07-13T13:46:51;1.23;;;0.60;;
54197;SDS011;40105;52.366;17.000;2023-07-13T13:49:17;2.15;;;0.50;;
54197;SDS011;40105;52.366;17.000;2023-07-13T13:51:43;1.05;;;0.70;;
54197;SDS011;40105;52.366;17.000;2023-07-13T13:54:12;0.70;;;0.40;;
54197;SDS011;40105;52.366;17.000;2023-07-13T13:56:39;1.38;;;0.60;;
54197;SDS011;40105;52.366;17.000;2023-07-13T13:59:04;2.27;;;0.67;;
54197;SDS011;40105;52.366;17.000;2023-07-13T14:01:29;3.93;;;0.90;;
54197;SDS011;40105;52.366;17.000;2023-07-13T14:03:55;3.42;;;0.68;;
54197;SDS011;40105;52.366;17.000;2023-07-13T14:06:21;1.20;;;0.67;;
54197;SDS011;40105;52.366;17.000;2023-07-13T14:08:46;0.67;;;0.50;;
54197;SDS011;40105;52.366;17.000;2023-07-13T14:11:16;0.82;;;0.52;;
54197;SDS011;40105;52.366;17.000;2023-07-13T14:13:42;1.42;;;0.43;;
54197;SDS011;40105;52.366;17.000;2023-07-13T14:16:11;0.70;;;0.50;;
54197;SDS011;40105;52.366;17.000;2023-07-13T14:18:37;3.20;;;1.27;;
54197;SDS011;40105;52.366;17.000;2023-07-13T14:21:03;0.60;;;0.43;;
54197;SDS011;40105;52.366;17.000;2023-07-13T14:23:28;2.73;;;0.90;;
54197;SDS011;40105;52.366;17.000;2023-07-13T14:25:53;1.80;;;0.83;;
54197;SDS011;40105;52.366;17.000;2023-07-13T14:30:47;3.17;;;0.60;;
54197;SDS011;40105;52.366;17.000;2023-07-13T14:33:12;0.70;;;0.50;;
54197;SDS011;40105;52.366;17.000;2023-07-13T14:35:38;2.33;;;0.93;;
54197;SDS011;40105;52.366;17.000;2023-07-13T14:38:03;1.00;;;0.60;;
54197;SDS011;40105;52.366;17.000;2023-07-13T14:40:30;1.75;;;0.77;;
54197;SDS011;40105;52.366;17.000;2023-07-13T14:42:55;0.68;;;0.50;;
54197;SDS011;40105;52.366;17.000;2023-07-13T14:45:20;8.40;;;0.87;;
54197;SDS011;40105;52.366;17.000;2023-07-13T14:47:46;2.43;;;0.93;;